Weather reports worldwide

Advertisment
Puerto de san Isidro, Spain (8057): temperature & dewpoint: 17.08.2019 14:00:00 - 23.08.2019 14:00:00 (CEST)Puerto de san Isidro, Spain (8057): wind speed & gusts: 17.08.2019 14:00:00 - 23.08.2019 14:00:00 (CEST)Puerto de san Isidro, Spain (8057): wind direction: 17.08.2019 14:00:00 - 23.08.2019 14:00:00 (CEST)Puerto de san Isidro, Spain (8057): visibility: 17.08.2019 14:00:00 - 23.08.2019 14:00:00 (CEST)Puerto de san Isidro, Spain (8057): sunshine duration: 17.08.2019 14:00:00 - 23.08.2019 14:00:00 (CEST)Puerto de san Isidro, Spain (8057): precipitation: 17.08.2019 14:00:00 - 23.08.2019 14:00:00 (CEST)
Date & Time tt [°C] td [°C] ff [km/h] ff [kn] fx [km/h] fx [kn] dd vv [km] sd [min] rr [mm]
23.08.2019 14:00:00 - - - - - - - - - -
23.08.2019 13:00:00 22,6 -1,4 20 11 29 16 W 20 60 0,0
23.08.2019 12:00:00 22,2 1,7 8 5 16 9 W 20 60 0,0
23.08.2019 11:00:00 22,2 3,2 7 4 10 6 E 20 60 0,0
23.08.2019 10:00:00 18,3 2,1 5 3 8 4 E 20 60 0,0
23.08.2019 09:00:00 10,5 4,1 3 1 6 4 E 20 59 0,0
23.08.2019 08:00:00 7,9 1,1 6 3 10 5 WNW 20 3 -
23.08.2019 07:00:00 7,8 0,4 6 4 9 5 WNW 20 0 0,0
23.08.2019 06:00:00 7,2 0,0 6 4 8 4 W 20 0 0,0
23.08.2019 05:00:00 7,8 -0,7 4 2 8 4 W 20 0 0,0
23.08.2019 04:00:00 8,7 -1,0 7 4 11 6 WNW 20 0 0,0
23.08.2019 03:00:00 8,1 0,6 8 4 10 6 WNW 20 0 0,0
23.08.2019 02:00:00 9,0 1,9 8 4 11 6 W 20 0 -
23.08.2019 01:00:00 8,6 1,9 6 3 10 5 W 20 0 0,0
23.08.2019 00:00:00 9,4 3,4 4 2 8 4 W 20 0 0,0
22.08.2019 23:00:00 10,8 5,3 6 3 8 4 W 20 0 0,0
22.08.2019 22:00:00 13,2 8,7 3 1 8 4 WNW 20 0 0,0
22.08.2019 21:00:00 16,4 11,3 7 4 18 10 W 20 51 0,0
22.08.2019 20:00:00 19,6 10,5 15 8 22 12 WNW 20 60 -
22.08.2019 19:00:00 21,3 8,3 15 8 24 13 W 20 60 0,0
22.08.2019 18:00:00 21,5 7,7 19 10 31 17 W 20 60 0,0
22.08.2019 17:00:00 22,0 9,2 17 9 26 14 W 20 60 0,0
22.08.2019 16:00:00 22,6 5,1 12 7 24 13 W 20 60 0,0
22.08.2019 15:00:00 21,8 3,4 16 9 36 19 WNW 20 60 0,0
22.08.2019 14:00:00 22,1 0,0 13 7 24 13 WNW 20 60 -
22.08.2019 13:00:00 21,5 -0,5 10 5 24 13 W 20 60 0,0
22.08.2019 12:00:00 22,0 3,6 9 5 16 9 ENE 20 60 0,0
22.08.2019 11:00:00 20,1 5,8 5 3 11 6 E 20 60 0,0
22.08.2019 10:00:00 16,7 5,3 6 3 9 5 E 20 60 0,0
22.08.2019 09:00:00 9,7 4,3 1 1 5 3 S 20 60 0,0
22.08.2019 08:00:00 6,1 2,1 1 1 7 4 NNE 20 4 -
22.08.2019 07:00:00 6,6 0,2 6 3 9 5 WNW 20 0 0,0
22.08.2019 06:00:00 5,6 -2,2 5 3 9 5 W 20 0 0,0
22.08.2019 05:00:00 5,5 -2,7 5 3 8 5 W 20 0 0,0
22.08.2019 04:00:00 6,0 -3,3 4 2 8 5 W 20 0 0,0
22.08.2019 03:00:00 6,3 -4,8 5 3 13 7 WSW 20 0 0,0
22.08.2019 02:00:00 6,8 -3,3 3 2 11 6 WSW 20 0 -
22.08.2019 01:00:00 7,2 -0,3 8 4 13 7 WNW 20 0 0,0
22.08.2019 00:00:00 9,8 7,4 5 3 19 10 WNW 20 0 0,0
21.08.2019 23:00:00 11,0 9,6 15 8 18 10 W 13 0 0,0
21.08.2019 22:00:00 12,0 10,4 13 7 18 10 W 12 0 0,0
21.08.2019 21:00:00 13,5 11,3 14 8 25 13 W 20 0 0,0
21.08.2019 20:00:00 14,8 11,6 18 10 28 15 WNW 20 53 -
21.08.2019 19:00:00 16,3 11,2 22 12 32 17 WNW 20 60 0,0
21.08.2019 18:00:00 17,2 11,4 23 12 33 18 W 20 60 0,0
21.08.2019 17:00:00 17,5 11,6 24 13 34 18 W 20 60 0,0
21.08.2019 16:00:00 17,3 11,8 23 12 33 18 W 20 60 0,0
21.08.2019 15:00:00 18,2 11,2 20 11 33 18 WNW 20 60 0,0
21.08.2019 14:00:00 18,3 9,4 14 7 29 16 WNW 20 60 -
21.08.2019 13:00:00 17,1 8,8 16 8 22 12 W 20 60 0,0
21.08.2019 12:00:00 17,0 8,7 10 5 18 10 E 20 60 0,0
21.08.2019 11:00:00 15,3 9,2 12 6 19 10 E 20 60 0,0
21.08.2019 10:00:00 11,9 8,0 3 2 9 5 SE 20 11 0,0
21.08.2019 09:00:00 10,3 6,7 7 4 10 5 E 20 31 0,0
21.08.2019 08:00:00 8,7 5,3 6 4 12 7 SE 20 0 -
21.08.2019 07:00:00 7,6 4,3 5 3 10 5 ESE 20 0 0,0
21.08.2019 06:00:00 7,2 4,1 6 3 11 6 ESE 20 0 0,0
21.08.2019 05:00:00 6,3 3,2 5 3 12 6 SE 20 0 0,0
21.08.2019 04:00:00 5,8 2,3 4 2 8 4 ESE 20 0 0,0
21.08.2019 03:00:00 6,2 3,8 4 2 16 9 WNW 20 0 0,0
21.08.2019 02:00:00 7,9 6,4 15 8 23 13 W 20 0 -
21.08.2019 01:00:00 8,6 7,0 18 10 25 13 W 20 0 0,0
21.08.2019 00:00:00 9,6 8,3 18 10 25 14 W 20 0 0,0
20.08.2019 23:00:00 10,2 8,8 18 10 24 13 WNW 20 0 0,0
20.08.2019 22:00:00 10,7 8,9 16 9 24 13 WNW 20 0 0,0
20.08.2019 21:00:00 11,3 9,4 17 9 22 12 W 20 0 0,0
20.08.2019 20:00:00 12,4 9,2 16 8 23 12 W 20 55 -
20.08.2019 19:00:00 13,3 9,7 18 10 27 14 WNW 20 58 0,0
20.08.2019 18:00:00 14,6 9,8 17 9 27 15 W 20 60 0,0
20.08.2019 17:00:00 14,7 9,9 19 10 27 15 W 20 60 0,0
20.08.2019 16:00:00 15,2 8,9 15 8 22 12 W 20 60 0,0
20.08.2019 15:00:00 14,7 7,7 10 5 25 13 NW 20 52 0,0
20.08.2019 14:00:00 13,9 6,7 5 3 21 11 SSE 20 60 -
20.08.2019 13:00:00 12,5 6,1 10 5 23 12 ENE 20 54 0,0
20.08.2019 12:00:00 10,9 6,4 8 5 21 12 N 20 38 0,0
20.08.2019 11:00:00 10,4 6,7 8 4 22 12 NNE 20 40 0,0
20.08.2019 10:00:00 9,0 5,6 8 5 22 12 NNE 20 9 0,0
20.08.2019 09:00:00 8,4 5,6 3 1 18 10 SSE 20 6 0,0
20.08.2019 08:00:00 7,9 6,1 6 4 19 10 NE 20 0 -
20.08.2019 07:00:00 8,1 6,7 6 4 16 8 NW 20 0 0,0
20.08.2019 06:00:00 8,1 6,8 10 5 19 10 NW 20 0 0,0
20.08.2019 05:00:00 8,0 7,0 12 6 19 11 W 0,8 0 0,0
20.08.2019 04:00:00 8,2 7,0 8 5 21 11 W 7 0 0,0
20.08.2019 03:00:00 8,1 7,0 8 4 16 9 WNW 10 0 0,0
20.08.2019 02:00:00 8,1 7,0 10 6 21 11 WNW 3,9 0 -
20.08.2019 01:00:00 8,2 7,0 8 4 17 9 WNW 17 0 0,0
20.08.2019 00:00:00 8,3 7,1 8 4 16 9 NW 3,6 0 0,0
19.08.2019 23:00:00 8,2 7,1 5 3 15 8 WNW 10 0 0,0
19.08.2019 22:00:00 8,2 7,0 11 6 22 12 WNW 4,6 0 0,0
19.08.2019 21:00:00 8,9 7,6 8 4 18 10 NW 4,9 0 0,0
19.08.2019 20:00:00 9,0 7,7 12 6 21 12 NW 7 0 -
19.08.2019 19:00:00 8,9 7,8 16 8 23 12 WNW 3,3 0 0,0
19.08.2019 18:00:00 9,8 8,3 14 7 22 12 WNW 11 0 0,0
19.08.2019 17:00:00 11,0 8,0 18 10 26 14 W 20 39 0,0
19.08.2019 16:00:00 12,5 8,5 16 8 24 13 WNW 20 45 0,0
19.08.2019 15:00:00 11,5 7,3 13 7 26 14 NW 20 24 0,0
19.08.2019 14:00:00 11,4 7,1 13 7 23 12 NW 20 18 -
19.08.2019 13:00:00 11,0 7,0 14 8 23 13 WNW 20 25 0,0
19.08.2019 12:00:00 11,5 6,4 10 6 23 12 NE 20 47 0,0
19.08.2019 11:00:00 9,3 6,2 8 4 19 10 NNE 20 0 0,0
19.08.2019 10:00:00 8,7 6,5 5 3 17 9 NNW 20 0 0,0
19.08.2019 09:00:00 7,6 5,9 9 5 17 9 WNW 20 0 0,0
19.08.2019 08:00:00 7,2 5,9 10 5 13 7 W 20 0 -
19.08.2019 07:00:00 7,3 5,8 5 3 13 7 W 20 0 0,0
19.08.2019 06:00:00 7,1 5,5 5 3 10 6 WNW 20 0 0,0
19.08.2019 05:00:00 7,0 5,8 4 2 11 6 W 13 0 0,0
19.08.2019 04:00:00 6,9 5,9 8 4 13 7 WNW 20 0 0,0
19.08.2019 03:00:00 7,1 6,2 7 4 12 7 WNW 20 0 0,0
19.08.2019 02:00:00 7,2 6,2 6 3 14 7 WNW 20 0 -
19.08.2019 01:00:00 7,5 6,5 9 5 16 9 WNW 0,2 0 0,0
19.08.2019 00:00:00 7,9 7,0 10 5 18 10 NW 0,2 0 0,0
18.08.2019 23:00:00 8,4 7,4 13 7 17 9 WNW 0,2 0 0,0
18.08.2019 22:00:00 8,7 7,8 10 6 22 12 WNW 0,2 0 0,0
18.08.2019 21:00:00 8,9 8,0 17 9 26 14 WNW 0,5 0 0,0
18.08.2019 20:00:00 9,8 8,8 17 9 26 14 WNW 0,6 0 -
18.08.2019 19:00:00 11,0 9,9 19 10 26 14 WNW 1,0 7 0,0
18.08.2019 18:00:00 12,1 10,6 17 9 27 14 WNW 1,4 45 0,0
18.08.2019 17:00:00 12,7 10,8 20 11 29 15 NW 20 24 0,0
18.08.2019 16:00:00 11,8 10,9 13 7 31 17 WNW 20 3 0,0
18.08.2019 15:00:00 10,9 9,9 19 10 30 16 WNW 0,8 0 0,0
18.08.2019 14:00:00 11,0 9,9 18 10 36 20 WNW 7 0 -
18.08.2019 13:00:00 12,1 11,0 18 10 25 14 WNW 0,8 2 0,0
18.08.2019 12:00:00 14,5 11,8 14 8 24 13 W 18 32 0,0
18.08.2019 11:00:00 14,3 10,5 16 9 22 12 WNW 20 21 0,0
18.08.2019 10:00:00 14,0 10,4 14 8 33 18 W 20 5 0,0
18.08.2019 09:00:00 15,1 4,5 5 3 18 10 WNW 20 40 0,0
18.08.2019 08:00:00 10,8 3,4 3 2 11 6 NW 20 1 -
18.08.2019 07:00:00 10,1 1,9 2 1 10 5 NNW 20 0 0,0
18.08.2019 06:00:00 9,1 0,2 3 2 11 6 NW 20 0 0,0
18.08.2019 05:00:00 8,8 -1,4 5 3 10 5 W 20 0 0,0
18.08.2019 04:00:00 10,6 -1,0 5 3 15 8 W 20 0 0,0
18.08.2019 03:00:00 17,4 -1,7 12 6 27 15 WSW 20 0 0,0
18.08.2019 02:00:00 12,8 4,3 7 4 16 9 W 20 0 -
18.08.2019 01:00:00 12,7 5,3 5 3 14 8 W 20 0 0,0
18.08.2019 00:00:00 13,1 5,8 5 3 15 8 WNW 20 0 0,0
17.08.2019 23:00:00 13,3 9,3 8 4 17 9 WNW 20 0 0,0
17.08.2019 22:00:00 15,0 11,6 12 6 24 13 WNW 20 0 0,0
17.08.2019 21:00:00 18,5 13,9 17 9 26 14 WNW 20 60 0,0
17.08.2019 20:00:00 21,6 12,7 16 8 29 16 W 20 60 -
17.08.2019 19:00:00 22,7 12,3 21 11 39 21 WNW 20 60 0,0
17.08.2019 18:00:00 24,8 6,1 22 12 43 23 WNW 20 60 0,0
17.08.2019 17:00:00 24,8 8,3 15 8 37 20 WNW 20 59 0,0
17.08.2019 16:00:00 25,8 8,3 8 4 35 19 SW 20 60 0,0
17.08.2019 15:00:00 24,8 8,3 13 7 29 16 WSW 20 59 0,0
17.08.2019 14:00:00 24,4 8,8 16 9 35 19 SE 20 60 -

tt = temperature
td = dewpoint
ff = wind speed
fx = gusts
dd = wind direction
vv = visibility
sd = sunshine duration
rr = precipitation

Next stations